Time;durP1;ratioP1;P1;durP2;ratioP2;P2;SDS_P1;SDS_P2;PMS_P1;PMS_P2;Temp;Humidity;BMP_temperature;BMP_pressure;BME280_temperature;BME280_humidity;BME280_pressure;Samples;Min_cycle;Max_cycle;Signal;HPM_P1;HPM_P2
2021/08/29 00:01:20;;;;;;;10.43;5.67;;;;;;;;;;5042554;28;20291;-81
2021/08/29 00:03:48;;;;;;;9.70;5.23;;;;;;;;;;5043956;28;20232;-81
2021/08/29 00:06:15;;;;;;;14.70;5.53;;;;;;;;;;5051605;28;20232;-81
2021/08/29 00:08:42;;;;;;;9.90;5.50;;;;;;;;;;5051137;28;20214;-80
2021/08/29 00:11:10;;;;;;;12.03;5.67;;;;;;;;;;5044247;28;20200;-81
2021/08/29 00:13:39;;;;;;;12.67;5.53;;;;;;;;;;5032208;28;20582;-81
2021/08/29 00:16:06;;;;;;;13.17;5.47;;;;;;;;;;5027641;28;20279;-81
2021/08/29 00:18:33;;;;;;;13.07;6.23;;;;;;;;;;5052554;28;20287;-81
2021/08/29 00:21:00;;;;;;;12.87;5.40;;;;;;;;;;5051598;28;20230;-80
2021/08/29 00:23:28;;;;;;;12.80;5.80;;;;;;;;;;5048284;28;20275;-81
2021/08/29 00:25:55;;;;;;;13.50;5.47;;;;;;;;;;5039759;28;20312;-81
2021/08/29 00:28:22;;;;;;;13.63;5.87;;;;;;;;;;5051096;28;20299;-81
2021/08/29 00:30:50;;;;;;;12.37;5.63;;;;;;;;;;5048800;28;20203;-81
2021/08/29 00:33:18;;;;;;;13.20;5.20;;;;;;;;;;5050438;28;20279;-81
2021/08/29 00:35:45;;;;;;;10.90;5.50;;;;;;;;;;5049701;28;20234;-81
2021/08/29 00:38:12;;;;;;;12.93;5.60;;;;;;;;;;5038247;28;20735;-81
2021/08/29 00:40:39;;;;;;;13.27;5.80;;;;;;;;;;5047367;28;20196;-81
2021/08/29 00:43:06;;;;;;;11.73;5.23;;;;;;;;;;5040002;28;20231;-81
2021/08/29 00:45:36;;;;;;;13.90;5.93;;;;;;;;;;5042849;28;20306;-81
2021/08/29 00:48:07;;;;;;;12.87;6.10;;;;;;;;;;5051078;28;20199;-81
2021/08/29 00:50:34;;;;;;;14.67;6.17;;;;;;;;;;5050828;28;20282;-81
2021/08/29 00:53:03;;;;;;;13.77;6.10;;;;;;;;;;5050305;28;20214;-81
2021/08/29 00:55:30;;;;;;;13.20;5.47;;;;;;;;;;5042380;28;20243;-81
2021/08/29 00:57:57;;;;;;;13.27;6.00;;;;;;;;;;5035457;28;20254;-81
2021/08/29 01:00:25;;;;;;;12.30;5.73;;;;;;;;;;5043508;28;20223;-81
2021/08/29 01:02:52;;;;;;;11.53;5.43;;;;;;;;;;5051012;28;20310;-80
2021/08/29 01:05:24;;;;;;;8.10;5.33;;;;;;;;;;5046124;28;20286;-80
2021/08/29 01:07:53;;;;;;;9.70;5.43;;;;;;;;;;5038913;28;20247;-81
2021/08/29 01:10:22;;;;;;;13.67;5.57;;;;;;;;;;5048761;28;20287;-81
2021/08/29 01:12:50;;;;;;;9.33;5.97;;;;;;;;;;5045334;28;20230;-81
2021/08/29 01:15:20;;;;;;;11.00;5.93;;;;;;;;;;5042631;28;20239;-81
2021/08/29 01:17:49;;;;;;;15.17;5.97;;;;;;;;;;5050868;28;20283;-81
2021/08/29 01:20:18;;;;;;;16.47;6.40;;;;;;;;;;5050710;28;20287;-81
2021/08/29 01:22:48;;;;;;;15.57;6.17;;;;;;;;;;5050295;28;20230;-81
2021/08/29 01:25:20;;;;;;;13.27;6.33;;;;;;;;;;5050513;28;20672;-81
2021/08/29 01:27:50;;;;;;;13.50;6.30;;;;;;;;;;5043089;28;20199;-81
2021/08/29 01:30:18;;;;;;;13.47;6.20;;;;;;;;;;5049033;28;20229;-80
2021/08/29 01:32:46;;;;;;;14.63;6.50;;;;;;;;;;5051564;28;20671;-81
2021/08/29 01:35:14;;;;;;;20.13;6.93;;;;;;;;;;5035765;28;20635;-81
2021/08/29 01:37:41;;;;;;;13.27;6.50;;;;;;;;;;5040064;28;20231;-81
2021/08/29 01:40:09;;;;;;;15.23;6.60;;;;;;;;;;5039812;28;20295;-80
2021/08/29 01:42:36;;;;;;;13.13;6.30;;;;;;;;;;5050739;28;20682;-81
2021/08/29 01:45:04;;;;;;;16.90;6.77;;;;;;;;;;5051314;28;20231;-81
2021/08/29 01:47:32;;;;;;;15.80;6.53;;;;;;;;;;5047745;28;20679;-81
2021/08/29 01:50:00;;;;;;;10.27;6.27;;;;;;;;;;5049865;28;20279;-81
2021/08/29 01:52:27;;;;;;;13.97;6.40;;;;;;;;;;5049816;28;20638;-81
2021/08/29 01:54:54;;;;;;;14.27;6.97;;;;;;;;;;5050626;28;20275;-81
2021/08/29 01:57:21;;;;;;;14.50;6.40;;;;;;;;;;5038331;28;20196;-81
2021/08/29 01:59:49;;;;;;;16.07;6.57;;;;;;;;;;5049509;28;20278;-81
2021/08/29 02:02:17;;;;;;;14.77;6.90;;;;;;;;;;5039207;28;20794;-81
2021/08/29 02:04:46;;;;;;;18.00;7.67;;;;;;;;;;5043891;28;20227;-81
2021/08/29 02:07:16;;;;;;;14.07;6.80;;;;;;;;;;5044601;28;20288;-80
2021/08/29 02:09:47;;;;;;;17.00;7.50;;;;;;;;;;5048116;28;20648;-80
2021/08/29 02:12:14;;;;;;;18.50;7.90;;;;;;;;;;5050887;28;20239;-81
2021/08/29 02:14:45;;;;;;;11.23;6.87;;;;;;;;;;5050891;28;20609;-81
2021/08/29 02:17:12;;;;;;;17.13;7.50;;;;;;;;;;5050776;28;20726;-80
2021/08/29 02:19:40;;;;;;;13.90;7.17;;;;;;;;;;5039759;28;20286;-81
2021/08/29 02:22:09;;;;;;;12.37;7.27;;;;;;;;;;5043682;28;20210;-81
2021/08/29 02:24:37;;;;;;;16.57;7.87;;;;;;;;;;5053777;28;20231;-81
2021/08/29 02:27:05;;;;;;;15.53;7.00;;;;;;;;;;5053986;28;20326;-81
2021/08/29 02:29:32;;;;;;;16.70;7.57;;;;;;;;;;5046203;28;20706;-81
2021/08/29 02:32:00;;;;;;;12.70;7.37;;;;;;;;;;5050932;28;20646;-81
2021/08/29 02:34:29;;;;;;;13.80;7.03;;;;;;;;;;5037966;28;20299;-81
2021/08/29 02:36:56;;;;;;;18.70;7.63;;;;;;;;;;5035493;28;20288;-81
2021/08/29 02:39:26;;;;;;;12.57;7.80;;;;;;;;;;5043663;28;20278;-81
2021/08/29 02:41:53;;;;;;;16.07;7.53;;;;;;;;;;5046923;28;20207;-81
2021/08/29 02:44:21;;;;;;;14.37;7.50;;;;;;;;;;5050844;28;20294;-81
2021/08/29 02:46:49;;;;;;;14.33;7.17;;;;;;;;;;5052003;28;20223;-81
2021/08/29 02:49:16;;;;;;;16.67;8.30;;;;;;;;;;5052899;28;20235;-81
2021/08/29 02:51:44;;;;;;;14.67;6.73;;;;;;;;;;5053569;28;20286;-81
2021/08/29 02:54:13;;;;;;;18.07;7.43;;;;;;;;;;5038405;28;20406;-81
2021/08/29 02:56:42;;;;;;;16.07;7.43;;;;;;;;;;5038565;28;20192;-81
2021/08/29 02:59:09;;;;;;;10.57;6.43;;;;;;;;;;5050374;28;20204;-81
2021/08/29 03:01:37;;;;;;;12.73;7.00;;;;;;;;;;5043715;28;20319;-81
2021/08/29 03:04:04;;;;;;;14.27;7.27;;;;;;;;;;5052950;28;20287;-81
2021/08/29 03:06:32;;;;;;;13.93;6.77;;;;;;;;;;5045203;28;20220;-81
2021/08/29 03:08:59;;;;;;;14.90;7.63;;;;;;;;;;5042895;28;20346;-81
2021/08/29 03:11:26;;;;;;;12.63;7.03;;;;;;;;;;5034171;28;20203;-81
2021/08/29 03:13:55;;;;;;;12.83;7.37;;;;;;;;;;5034514;28;20284;-81
2021/08/29 03:16:23;;;;;;;13.77;7.20;;;;;;;;;;5041966;28;20238;-81
2021/08/29 03:18:51;;;;;;;16.87;8.20;;;;;;;;;;5034939;28;20250;-81
2021/08/29 03:21:18;;;;;;;16.10;8.13;;;;;;;;;;5052713;28;20287;-81
2021/08/29 03:23:45;;;;;;;23.80;8.33;;;;;;;;;;5050367;28;20278;-81
2021/08/29 03:26:13;;;;;;;15.90;8.47;;;;;;;;;;5052597;28;20306;-81
2021/08/29 03:28:40;;;;;;;18.80;8.50;;;;;;;;;;5041707;28;20243;-81
2021/08/29 03:31:08;;;;;;;15.93;7.80;;;;;;;;;;5050824;28;20286;-81
2021/08/29 03:33:36;;;;;;;19.73;8.00;;;;;;;;;;5043114;28;20759;-81
2021/08/29 03:36:03;;;;;;;17.73;8.50;;;;;;;;;;5033123;28;20303;-81
2021/08/29 03:38:32;;;;;;;18.93;7.87;;;;;;;;;;5033323;28;20283;-81
2021/08/29 03:40:59;;;;;;;17.03;8.57;;;;;;;;;;5048865;28;20215;-81
2021/08/29 03:43:26;;;;;;;14.70;8.13;;;;;;;;;;5052452;28;20223;-81
2021/08/29 03:45:54;;;;;;;17.23;8.20;;;;;;;;;;5052547;28;20241;-81
2021/08/29 03:48:22;;;;;;;15.23;8.80;;;;;;;;;;5049449;28;20317;-80
2021/08/29 03:50:50;;;;;;;14.57;8.30;;;;;;;;;;5051547;28;20203;-81
2021/08/29 03:53:18;;;;;;;19.57;8.80;;;;;;;;;;5050856;28;20310;-81
2021/08/29 03:55:45;;;;;;;20.50;8.57;;;;;;;;;;5040653;28;20728;-81
2021/08/29 03:58:12;;;;;;;17.83;7.93;;;;;;;;;;5053116;28;20231;-81
2021/08/29 04:00:40;;;;;;;17.73;8.80;;;;;;;;;;5050471;28;20202;-81
2021/08/29 04:03:07;;;;;;;16.33;8.33;;;;;;;;;;5052070;28;20266;-81
2021/08/29 04:05:37;;;;;;;19.20;8.60;;;;;;;;;;5051767;28;20238;-81
2021/08/29 04:08:05;;;;;;;20.43;8.67;;;;;;;;;;5047560;28;20251;-81
2021/08/29 04:10:33;;;;;;;17.80;7.90;;;;;;;;;;5048842;28;20296;-80
2021/08/29 04:13:00;;;;;;;22.43;8.97;;;;;;;;;;5051961;28;20632;-81
2021/08/29 04:15:27;;;;;;;19.70;8.33;;;;;;;;;;5052513;28;20290;-81
2021/08/29 04:17:54;;;;;;;20.37;8.90;;;;;;;;;;5044950;28;20283;-81
2021/08/29 04:20:22;;;;;;;18.13;8.87;;;;;;;;;;5033385;28;20619;-81
2021/08/29 04:22:51;;;;;;;18.13;8.57;;;;;;;;;;5041957;28;20617;-81
2021/08/29 04:25:18;;;;;;;19.63;8.83;;;;;;;;;;5033029;28;20239;-81
2021/08/29 04:27:46;;;;;;;15.83;8.23;;;;;;;;;;5045441;28;20229;-81
2021/08/29 04:30:13;;;;;;;16.47;8.30;;;;;;;;;;5051605;28;20235;-81
2021/08/29 04:32:41;;;;;;;21.70;9.23;;;;;;;;;;5045594;28;20279;-81
2021/08/29 04:35:09;;;;;;;15.13;8.50;;;;;;;;;;5032926;28;20576;-81
2021/08/29 04:37:36;;;;;;;18.77;9.03;;;;;;;;;;5052116;28;20687;-81
2021/08/29 04:40:05;;;;;;;18.53;8.43;;;;;;;;;;5051598;28;20288;-81
2021/08/29 04:42:32;;;;;;;21.67;9.10;;;;;;;;;;5045618;28;20207;-81
2021/08/29 04:44:59;;;;;;;19.57;9.13;;;;;;;;;;5045510;28;20224;-81
2021/08/29 04:47:26;;;;;;;18.43;8.70;;;;;;;;;;5047282;28;20258;-81
2021/08/29 04:49:53;;;;;;;20.50;9.30;;;;;;;;;;5040203;28;20208;-81
2021/08/29 04:52:21;;;;;;;16.70;8.70;;;;;;;;;;5032041;28;20290;-81
2021/08/29 04:54:48;;;;;;;19.27;8.87;;;;;;;;;;5051119;28;20231;-81
2021/08/29 04:57:17;;;;;;;23.63;9.30;;;;;;;;;;5032472;28;20259;-81
2021/08/29 04:59:46;;;;;;;19.03;8.80;;;;;;;;;;5042804;28;20233;-80
2021/08/29 05:02:13;;;;;;;20.27;9.47;;;;;;;;;;5051231;28;20321;-81
2021/08/29 05:04:40;;;;;;;20.43;8.63;;;;;;;;;;5050799;28;20231;-81
2021/08/29 05:07:07;;;;;;;16.27;8.90;;;;;;;;;;5051384;28;20301;-81
2021/08/29 05:09:35;;;;;;;20.40;9.60;;;;;;;;;;5041667;28;20274;-81
2021/08/29 05:12:02;;;;;;;20.87;9.07;;;;;;;;;;5039872;28;20600;-81
2021/08/29 05:14:30;;;;;;;20.33;8.70;;;;;;;;;;5050946;28;20285;-81
2021/08/29 05:16:57;;;;;;;16.97;8.90;;;;;;;;;;5040306;28;20223;-81
2021/08/29 05:19:26;;;;;;;19.07;8.73;;;;;;;;;;5042688;28;20200;-81
2021/08/29 05:21:53;;;;;;;17.23;8.40;;;;;;;;;;5044630;28;20696;-81
2021/08/29 05:24:20;;;;;;;22.57;9.23;;;;;;;;;;5044663;28;20578;-81
2021/08/29 05:26:47;;;;;;;20.20;10.10;;;;;;;;;;5050620;28;20290;-81
2021/08/29 05:29:15;;;;;;;20.03;8.23;;;;;;;;;;5049977;28;20637;-81
2021/08/29 05:31:43;;;;;;;17.13;8.67;;;;;;;;;;5044904;28;20291;-80
2021/08/29 05:34:10;;;;;;;21.17;8.53;;;;;;;;;;5036278;28;20293;-81
2021/08/29 05:36:37;;;;;;;20.53;9.40;;;;;;;;;;5050814;28;20237;-81
2021/08/29 05:39:05;;;;;;;14.83;8.27;;;;;;;;;;5042776;28;20290;-81
2021/08/29 05:41:32;;;;;;;19.87;9.13;;;;;;;;;;5041798;28;20234;-81
2021/08/29 05:43:59;;;;;;;16.93;9.23;;;;;;;;;;5038101;28;20740;-81
2021/08/29 05:46:26;;;;;;;15.90;9.20;;;;;;;;;;5031618;28;20242;-81
2021/08/29 05:48:55;;;;;;;17.53;8.43;;;;;;;;;;5039967;28;20265;-81
2021/08/29 05:51:22;;;;;;;13.67;7.67;;;;;;;;;;5040042;28;20239;-80
2021/08/29 05:53:49;;;;;;;14.30;8.20;;;;;;;;;;5051117;28;20287;-81
2021/08/29 05:56:16;;;;;;;14.57;8.30;;;;;;;;;;5050674;28;20231;-81
2021/08/29 05:58:43;;;;;;;14.23;7.70;;;;;;;;;;5037918;28;20288;-81
2021/08/29 06:01:12;;;;;;;16.67;7.73;;;;;;;;;;5052703;28;20298;-81
2021/08/29 06:03:39;;;;;;;14.47;7.20;;;;;;;;;;5054116;28;20235;-81
2021/08/29 06:06:08;;;;;;;14.30;7.80;;;;;;;;;;5045939;28;20291;-81
2021/08/29 06:08:35;;;;;;;12.97;6.67;;;;;;;;;;5051213;28;20302;-81
2021/08/29 06:11:04;;;;;;;13.70;7.13;;;;;;;;;;5050237;28;20238;-81
2021/08/29 06:13:32;;;;;;;14.97;6.67;;;;;;;;;;5054787;28;20566;-81
2021/08/29 06:15:59;;;;;;;14.33;6.97;;;;;;;;;;5054486;28;20219;-80
2021/08/29 06:18:26;;;;;;;10.93;6.43;;;;;;;;;;5052070;28;20272;-81
2021/08/29 06:20:53;;;;;;;14.93;6.27;;;;;;;;;;5035682;28;20196;-81
2021/08/29 06:23:22;;;;;;;8.67;5.83;;;;;;;;;;5036101;28;20235;-81
2021/08/29 06:25:49;;;;;;;10.83;6.37;;;;;;;;;;5042516;28;20278;-81
2021/08/29 06:28:16;;;;;;;8.53;5.70;;;;;;;;;;5053126;28;20302;-81
2021/08/29 06:30:43;;;;;;;9.83;6.03;;;;;;;;;;5048233;28;20200;-81
2021/08/29 06:33:10;;;;;;;10.63;6.00;;;;;;;;;;5048983;28;20224;-81
2021/08/29 06:35:38;;;;;;;14.17;5.63;;;;;;;;;;5035715;28;20278;-80
2021/08/29 06:38:05;;;;;;;9.73;5.83;;;;;;;;;;5038945;28;20231;-79
2021/08/29 06:40:34;;;;;;;11.07;6.30;;;;;;;;;;5036286;28;20239;-79
2021/08/29 06:43:01;;;;;;;12.20;6.17;;;;;;;;;;5041564;28;20287;-80
2021/08/29 06:45:28;;;;;;;13.00;6.10;;;;;;;;;;5039320;28;20206;-79
2021/08/29 06:47:55;;;;;;;11.70;6.32;;;;;;;;;;5054263;28;20318;-79
2021/08/29 06:50:22;;;;;;;12.90;5.85;;;;;;;;;;5037273;28;20288;-80
2021/08/29 06:52:50;;;;;;;11.60;5.72;;;;;;;;;;5043119;28;20734;-80
2021/08/29 06:55:17;;;;;;;10.52;5.85;;;;;;;;;;5053842;28;20227;-79
2021/08/29 06:57:45;;;;;;;13.10;6.07;;;;;;;;;;5052453;28;20271;-79
2021/08/29 07:00:13;;;;;;;10.15;5.55;;;;;;;;;;5049139;28;20291;-79
2021/08/29 07:02:40;;;;;;;11.43;5.38;;;;;;;;;;5052565;28;20267;-79
2021/08/29 07:05:08;;;;;;;12.40;5.68;;;;;;;;;;5046750;28;20294;-79
2021/08/29 07:07:35;;;;;;;10.73;5.38;;;;;;;;;;5045333;28;20262;-79
2021/08/29 07:10:02;;;;;;;10.50;5.70;;;;;;;;;;5047201;28;20231;-79
2021/08/29 07:12:29;;;;;;;8.50;5.13;;;;;;;;;;5052627;28;20200;-80
2021/08/29 07:14:58;;;;;;;9.77;5.40;;;;;;;;;;5050691;28;20290;-80
2021/08/29 07:17:25;;;;;;;11.07;5.07;;;;;;;;;;5052201;28;20242;-82
2021/08/29 07:19:52;;;;;;;10.73;5.53;;;;;;;;;;5050581;28;20746;-80
2021/08/29 07:22:19;;;;;;;8.90;4.85;;;;;;;;;;5044149;28;20647;-80
2021/08/29 07:24:46;;;;;;;11.15;5.57;;;;;;;;;;5049924;28;20658;-80
2021/08/29 07:27:13;;;;;;;9.20;5.00;;;;;;;;;;5048386;28;20206;-80
2021/08/29 07:29:41;;;;;;;9.48;4.68;;;;;;;;;;5051527;28;20286;-80
2021/08/29 07:32:10;;;;;;;7.43;4.40;;;;;;;;;;5046927;28;20239;-80
2021/08/29 07:34:37;;;;;;;8.00;4.57;;;;;;;;;;5051951;28;20231;-80
2021/08/29 07:37:04;;;;;;;7.93;4.10;;;;;;;;;;5046902;28;20203;-80
2021/08/29 07:39:32;;;;;;;8.57;4.40;;;;;;;;;;5050069;28;20263;-80
2021/08/29 07:41:59;;;;;;;8.40;4.22;;;;;;;;;;5037867;28;20284;-79
2021/08/29 07:44:26;;;;;;;12.30;4.78;;;;;;;;;;5041058;28;20627;-80
2021/08/29 07:46:53;;;;;;;9.68;4.38;;;;;;;;;;5034431;28;20200;-80
2021/08/29 07:49:22;;;;;;;9.48;4.30;;;;;;;;;;5045373;28;20255;-79
2021/08/29 07:51:49;;;;;;;9.38;4.40;;;;;;;;;;5052624;28;20285;-79
2021/08/29 07:54:16;;;;;;;7.28;4.35;;;;;;;;;;5044702;28;20294;-79
2021/08/29 07:56:43;;;;;;;6.82;4.15;;;;;;;;;;5037264;28;20231;-79
2021/08/29 07:59:11;;;;;;;8.95;4.65;;;;;;;;;;5036103;28;20218;-79
2021/08/29 08:01:38;;;;;;;8.68;4.82;;;;;;;;;;5049830;28;20302;-80
2021/08/29 08:04:06;;;;;;;8.85;5.22;;;;;;;;;;5051680;28;20632;-79
2021/08/29 08:06:34;;;;;;;12.13;5.45;;;;;;;;;;5050858;28;20346;-79
2021/08/29 08:09:02;;;;;;;7.93;4.93;;;;;;;;;;5052186;28;20262;-79
2021/08/29 08:11:29;;;;;;;9.65;5.10;;;;;;;;;;5052005;28;20291;-80
2021/08/29 08:13:56;;;;;;;8.40;5.35;;;;;;;;;;5048266;28;20234;-80
2021/08/29 08:16:23;;;;;;;8.32;5.00;;;;;;;;;;5040694;28;20223;-80
2021/08/29 08:18:50;;;;;;;9.73;5.70;;;;;;;;;;5039809;28;20676;-80
2021/08/29 08:21:19;;;;;;;10.13;5.60;;;;;;;;;;5043414;28;20236;-79
2021/08/29 08:23:48;;;;;;;10.75;5.50;;;;;;;;;;5045567;28;20366;-80
2021/08/29 08:26:15;;;;;;;8.48;5.00;;;;;;;;;;5032770;28;20626;-80
2021/08/29 08:28:42;;;;;;;8.10;5.38;;;;;;;;;;5048408;28;20255;-80
2021/08/29 08:31:09;;;;;;;7.50;4.60;;;;;;;;;;5041851;28;20552;-79
2021/08/29 08:33:37;;;;;;;8.15;4.63;;;;;;;;;;5040494;28;20192;-80
2021/08/29 08:36:04;;;;;;;13.70;5.53;;;;;;;;;;5038283;28;20288;-80
2021/08/29 08:38:31;;;;;;;7.75;4.95;;;;;;;;;;5038162;28;20276;-79
2021/08/29 08:40:59;;;;;;;9.00;5.50;;;;;;;;;;5048347;28;20206;-80
2021/08/29 08:43:27;;;;;;;8.23;5.25;;;;;;;;;;5042662;28;20215;-80
2021/08/29 08:45:54;;;;;;;8.23;5.25;;;;;;;;;;5041593;28;20279;-79
2021/08/29 08:48:22;;;;;;;9.75;5.70;;;;;;;;;;5043423;28;20306;-82
2021/08/29 08:50:50;;;;;;;7.90;5.70;;;;;;;;;;5044267;28;20738;-82
2021/08/29 08:53:19;;;;;;;9.90;5.65;;;;;;;;;;5041650;28;20195;-81
2021/08/29 08:55:47;;;;;;;7.93;5.10;;;;;;;;;;5041227;28;20586;-83
2021/08/29 08:58:17;;;;;;;7.55;5.03;;;;;;;;;;5039454;28;20204;-82
2021/08/29 09:00:45;;;;;;;9.30;5.13;;;;;;;;;;5037442;28;20223;-81
2021/08/29 09:03:12;;;;;;;8.77;5.10;;;;;;;;;;5045690;28;20231;-81
2021/08/29 09:05:40;;;;;;;6.60;4.72;;;;;;;;;;5046701;28;20215;-81
2021/08/29 09:08:07;;;;;;;7.30;4.72;;;;;;;;;;5043046;28;20303;-81
2021/08/29 09:10:34;;;;;;;9.60;5.18;;;;;;;;;;5035975;28;20234;-81
2021/08/29 09:13:02;;;;;;;8.90;5.18;;;;;;;;;;5034908;28;20291;-81
2021/08/29 09:15:31;;;;;;;12.45;5.43;;;;;;;;;;5031911;28;20291;-82
2021/08/29 09:17:58;;;;;;;8.45;5.88;;;;;;;;;;5042250;28;20290;-83
2021/08/29 09:20:27;;;;;;;9.38;4.78;;;;;;;;;;5051942;28;20195;-82
2021/08/29 09:22:56;;;;;;;9.77;4.68;;;;;;;;;;5035879;28;20195;-82
2021/08/29 09:25:25;;;;;;;7.28;4.38;;;;;;;;;;5051547;28;20585;-82
2021/08/29 09:27:53;;;;;;;8.35;4.20;;;;;;;;;;5049574;28;20267;-82
2021/08/29 09:30:21;;;;;;;8.35;4.47;;;;;;;;;;5039791;28;20284;-81
2021/08/29 09:32:51;;;;;;;7.45;4.22;;;;;;;;;;5051961;28;20226;-82
2021/08/29 09:35:19;;;;;;;8.32;4.50;;;;;;;;;;5047326;28;20605;-83
2021/08/29 09:37:46;;;;;;;7.90;3.97;;;;;;;;;;5048572;28;20283;-81
2021/08/29 09:40:18;;;;;;;6.97;3.97;;;;;;;;;;5055518;28;20195;-81
2021/08/29 09:42:46;;;;;;;5.85;3.55;;;;;;;;;;5056206;28;20362;-83
2021/08/29 09:45:22;;;;;;;7.15;3.90;;;24.20;99.90;;;;;;5049616;28;20506;-83
2021/08/29 09:47:50;;;;;;;6.20;3.63;;;24.30;99.90;;;;;;5051631;28;20566;-82
2021/08/29 09:50:20;;;;;;;6.72;3.80;;;24.50;99.90;;;;;;5051151;28;20250;-82
2021/08/29 09:52:48;;;;;;;6.00;3.33;;;24.10;99.90;;;;;;5056586;28;20219;-83
2021/08/29 09:55:26;;;;;;;6.97;3.30;;;23.90;99.90;;;;;;5046673;28;20299;-83
2021/08/29 09:57:53;;;;;;;5.20;3.10;;;25.10;99.90;;;;;;5054939;28;20286;-81
2021/08/29 10:00:20;;;;;;;7.30;3.15;;;25.10;99.90;;;;;;5050872;28;20283;-81
2021/08/29 10:03:00;;;;;;;6.25;2.92;;;24.80;99.90;;;;;;5055718;28;20795;-81
2021/08/29 10:05:29;;;;;;;8.50;2.90;;;24.70;99.90;;;;;;5056870;28;20261;-82
2021/08/29 10:08:04;;;;;;;4.65;2.80;;;25.70;99.90;;;;;;5054153;28;20207;-82
2021/08/29 10:10:33;;;;;;;4.65;2.80;;;26.20;99.90;;;;;;5046071;28;20199;-82
2021/08/29 10:13:00;;;;;;;4.97;2.38;;;24.80;99.90;;;;;;5046881;28;20196;-81
2021/08/29 10:15:28;;;;;;;4.22;2.35;;;22.90;99.90;;;;;;5041991;28;20215;-81
2021/08/29 10:18:00;;;;;;;5.05;2.65;;;22.10;99.90;;;;;;5038825;28;20283;-81
2021/08/29 10:20:32;;;;;;;5.85;2.63;;;22.20;99.90;;;;;;5047784;28;20196;-82
2021/08/29 10:23:00;;;;;;;6.88;2.53;;;22.00;99.90;;;;;;5046179;28;20291;-81
2021/08/29 10:25:27;;;;;;;2.72;1.92;;;;;;;;;;5054644;28;20211;-81
2021/08/29 10:27:58;;;;;;;4.75;2.45;;;;;;;;;;5054623;28;20224;-82
2021/08/29 10:30:28;;;;;;;5.43;2.38;;;;;;;;;;5048811;28;20291;-83
2021/08/29 10:32:55;;;;;;;5.47;2.33;;;;;;;;;;5036812;28;20204;-83
2021/08/29 10:35:23;;;;;;;4.20;2.20;;;;;;;;;;5050473;28;20646;-83
2021/08/29 10:37:51;;;;;;;3.95;2.35;;;;;;;;;;5048495;28;20219;-84
2021/08/29 10:40:18;;;;;;;5.40;2.47;;;;;;;;;;5054246;28;20282;-83
2021/08/29 10:42:46;;;;;;;5.28;2.33;;;;;;;;;;5054614;28;20226;-83
2021/08/29 10:45:14;;;;;;;5.32;2.45;;;;;;;;;;5044002;28;20740;-84
2021/08/29 10:47:43;;;;;;;4.22;2.00;;;;;;;;;;5050892;28;20227;-83
2021/08/29 10:50:15;;;;;;;3.58;1.90;;;;;;;;;;5052856;28;20251;-83
2021/08/29 10:52:43;;;;;;;4.40;2.40;;;;;;;;;;5053176;28;20235;-83
2021/08/29 10:55:14;;;;;;;4.20;2.33;;;;;;;;;;5044804;28;20232;-83
2021/08/29 10:57:42;;;;;;;4.97;2.10;;;;;;;;;;5036229;28;20200;-83
2021/08/29 11:00:11;;;;;;;4.25;2.10;;;;;;;;;;5055609;28;20278;-83
2021/08/29 11:02:39;;;;;;;4.78;2.03;;;;;;;;;;5035724;28;20251;-83
2021/08/29 11:05:07;;;;;;;5.15;2.40;;;;;;;;;;5027483;28;20311;-83
2021/08/29 11:07:52;;;;;;;2.88;2.20;;;;;;;;;;5044231;28;20204;-83
2021/08/29 11:10:38;;;;;;;4.60;1.92;;;;;;;;;;5048439;28;20224;-83
2021/08/29 11:13:20;;;;;;;4.32;2.10;;;;;;;;;;5046910;28;20228;-82
2021/08/29 11:15:48;;;;;;;2.92;1.90;;;;;;;;;;5052198;28;20196;-82
2021/08/29 11:18:16;;;;;;;3.38;2.03;;;;;;;;;;5049543;28;20670;-83
2021/08/29 11:20:57;;;;;;;5.10;2.28;;;;;;;;;;5054660;28;20227;-83
2021/08/29 11:23:44;;;;;;;3.55;1.90;;;;;;;;;;5053955;28;20595;-84
2021/08/29 11:26:30;;;;;;;5.20;2.00;;;;;;;;;;5047200;28;20197;-83
2021/08/29 11:28:57;;;;;;;8.73;1.88;;;;;;;;;;5040203;28;20717;-82
2021/08/29 11:31:39;;;;;;;3.58;1.88;;;;;;;;;;5035638;28;20279;-84
2021/08/29 11:34:08;;;;;;;3.92;2.00;;;;;;;;;;5040637;28;20290;-81
2021/08/29 11:36:35;;;;;;;3.58;2.05;;;;;;;;;;5040183;28;20232;-81
2021/08/29 11:39:04;;;;;;;2.92;1.90;;;;;;;;;;5049650;28;20293;-81
2021/08/29 11:41:31;;;;;;;2.95;1.90;;;;;;;;;;5036319;28;20220;-81
2021/08/29 11:43:58;;;;;;;6.65;2.20;;;;;;;;;;5048923;28;20282;-81
2021/08/29 11:46:27;;;;;;;3.88;2.00;;;;;;;;;;5050115;28;20283;-82
2021/08/29 11:48:56;;;;;;;4.97;2.30;;;;;;;;;;5050971;28;20231;-83
2021/08/29 11:51:29;;;;;;;8.07;2.85;;;;;;;;;;5053223;28;20203;-82
2021/08/29 11:53:56;;;;;;;5.32;2.30;;;;;;;;;;5053645;28;20212;-84
2021/08/29 11:56:27;;;;;;;3.25;1.90;;;;;;;;;;5050691;28;20287;-84
2021/08/29 11:58:55;;;;;;;4.18;1.88;;;;;;;;;;5055171;28;20203;-84
2021/08/29 12:01:22;;;;;;;3.95;1.83;;;;;;;;;;5042697;28;20227;-85
2021/08/29 12:03:50;;;;;;;4.53;1.95;;;;;;;;;;5051637;28;20227;-85
2021/08/29 12:06:21;;;;;;;4.20;1.73;;;;;;;;;;5043047;28;20287;-85
2021/08/29 12:08:59;;;;;;;2.60;1.70;;;;;;;;;;5033572;28;20196;-84
2021/08/29 12:11:28;;;;;;;2.63;1.70;;;;;;;;;;5042653;28;20623;-83
2021/08/29 12:13:56;;;;;;;3.08;1.80;;;;;;;;;;5037074;28;20204;-84
2021/08/29 12:16:24;;;;;;;2.65;1.58;;;;;;;;;;5053412;28;20204;-84
2021/08/29 12:18:52;;;;;;;3.13;1.60;;;;;;;;;;5052952;28;20619;-84
2021/08/29 12:21:21;;;;;;;2.70;1.52;;;;;;;;;;5050637;28;20291;-85
2021/08/29 12:23:48;;;;;;;4.32;1.90;;;;;;;;;;5043937;28;20205;-83
2021/08/29 12:26:22;;;;;;;2.30;1.80;;;;;;;;;;5040252;28;20220;-84
2021/08/29 12:29:00;;;;;;;3.83;1.90;;;;;;;;;;5038253;28;21777;-83
2021/08/29 12:31:28;;;;;;;3.35;1.85;;;;;;;;;;5046269;28;20214;-84
2021/08/29 12:33:55;;;;;;;3.72;1.58;;;;;;;;;;5051172;28;20223;-84
2021/08/29 12:36:23;;;;;;;3.38;1.80;;;;;;;;;;5040582;28;20279;-84
2021/08/29 12:38:54;;;;;;;4.40;1.67;;;;;;;;;;5048973;28;20228;-85
2021/08/29 12:41:23;;;;;;;2.40;1.70;;;;;;;;;;5037791;28;20286;-83
2021/08/29 12:43:50;;;;;;;4.28;2.20;;;;;;;;;;5043159;28;20282;-84
2021/08/29 12:46:19;;;;;;;3.80;1.80;;;;;;;;;;5048918;28;20223;-84
2021/08/29 12:48:46;;;;;;;3.75;1.70;;;;;;;;;;5047916;28;20280;-83
2021/08/29 12:51:13;;;;;;;2.35;1.60;;;;;;;;;;5051739;28;20269;-83
2021/08/29 12:53:41;;;;;;;3.08;1.60;;;;;;;;;;5053537;28;20271;-81
2021/08/29 12:56:20;;;;;;;4.25;2.05;;;;;;;;;;5041016;28;20691;-86
2021/08/29 12:58:49;;;;;;;4.10;1.70;;;;;;;;;;5051904;28;20200;-83
2021/08/29 13:01:19;;;;;;;2.28;1.60;;;;;;;;;;5036282;28;20623;-84
2021/08/29 13:03:50;;;;;;;3.63;1.40;;;;;;;;;;5036705;28;20282;-84
2021/08/29 13:06:20;;;;;;;3.75;1.95;;;;;;;;;;5049002;28;20243;-85
2021/08/29 13:08:51;;;;;;;3.08;1.50;;;;;;;;;;5035867;28;20264;-84
2021/08/29 13:11:19;;;;;;;4.50;2.03;;;;;;;;;;5032312;28;20308;-84
2021/08/29 13:13:53;;;;;;;3.63;1.65;;;;;;;;;;5045575;28;20286;-84
2021/08/29 13:16:20;;;;;;;3.95;1.80;;;;;;;;;;5051378;28;20203;-82
2021/08/29 13:18:48;;;;;;;3.25;1.75;;;;;;;;;;5048514;28;20712;-83
2021/08/29 13:21:23;;;;;;;3.20;1.80;;;;;;;;;;5041339;28;20661;-83
2021/08/29 13:23:50;;;;;;;4.93;1.80;;;;;;;;;;5037501;28;20327;-82
2021/08/29 13:26:18;;;;;;;3.03;1.88;;;;;;;;;;5047498;28;20263;-84
2021/08/29 13:28:52;;;;;;;2.53;1.85;;;;;;;;;;5043885;28;20200;-83
2021/08/29 13:31:19;;;;;;;3.58;1.90;;;;;;;;;;5046925;28;20228;-83
2021/08/29 13:33:58;;;;;;;4.03;2.03;;;;;;;;;;5040590;28;20195;-82
2021/08/29 13:36:25;;;;;;;3.08;1.63;;;;;;;;;;5035914;28;20299;-82
2021/08/29 13:38:52;;;;;;;7.15;1.92;;;;;;;;;;5039502;28;20193;-82
2021/08/29 13:41:20;;;;;;;5.85;2.00;;;;;;;;;;5045820;28;20235;-82
2021/08/29 13:43:47;;;;;;;3.97;1.80;;;;;;;;;;5040458;28;20200;-81
2021/08/29 13:46:16;;;;;;;7.07;1.90;;;;;;;;;;5039695;28;20291;-85
2021/08/29 13:48:43;;;;;;;4.85;1.90;;;;;;;;;;5046216;28;20200;-85
2021/08/29 13:51:11;;;;;;;3.70;1.80;;;;;;;;;;5046849;28;21046;-86
2021/08/29 13:53:39;;;;;;;4.63;1.75;;;;;;;;;;5052193;28;20208;-86
2021/08/29 13:56:07;;;;;;;3.20;1.80;;;;;;;;;;5051083;28;20278;-86
2021/08/29 13:58:35;;;;;;;4.68;2.05;;;;;;;;;;5049128;28;20212;-84
2021/08/29 14:01:02;;;;;;;5.10;2.00;;;;;;;;;;5041864;28;20699;-85
2021/08/29 14:03:32;;;;;;;4.70;2.20;;;;;;;;;;5046738;28;20231;-85
2021/08/29 14:05:59;;;;;;;3.47;1.80;;;;;;;;;;5039832;28;20216;-85
2021/08/29 14:08:26;;;;;;;3.83;2.05;;;;;;;;;;5049875;28;20224;-84
2021/08/29 14:10:53;;;;;;;3.80;2.08;;;;;;;;;;5044646;28;20316;-86
2021/08/29 14:13:21;;;;;;;3.13;2.10;;;;;;;;;;5047374;28;20228;-85
2021/08/29 14:15:48;;;;;;;5.90;2.50;;;;;;;;;;5046951;28;20290;-85
2021/08/29 14:18:15;;;;;;;6.00;2.65;;;;;;;;;;5043111;28;20216;-84
2021/08/29 14:20:45;;;;;;;5.25;2.13;;;;;;;;;;5042086;28;20610;-86
2021/08/29 14:23:12;;;;;;;5.25;2.20;;;;;;;;;;5040580;28;20558;-84
2021/08/29 14:25:39;;;;;;;4.82;2.13;;;;;;;;;;5045223;28;20224;-84
2021/08/29 14:28:07;;;;;;;4.57;2.10;;;;;;;;;;5050191;28;20235;-86
2021/08/29 14:30:35;;;;;;;2.72;1.80;;;;;;;;;;5037678;28;20223;-84
2021/08/29 14:33:02;;;;;;;6.00;2.15;;;;;;;;;;5044467;28;20200;-85
2021/08/29 14:35:30;;;;;;;4.25;2.05;;;;;;;;;;5041950;28;20208;-84
2021/08/29 14:37:58;;;;;;;3.90;2.10;;;;;;;;;;5048037;28;20219;-85